sensor_id;sensor_type;location;lat;lon;timestamp;pressure;altitude;pressure_sealevel;temperature;humidity
21817;BME280;13247;47.504;7.382;2023-07-20T00:01:44;97219.91;;;21.43;91.52
21817;BME280;13247;47.504;7.382;2023-07-20T00:04:29;97229.63;;;21.55;89.55
21817;BME280;13247;47.504;7.382;2023-07-20T00:07:14;97233.03;;;21.57;89.57
21817;BME280;13247;47.504;7.382;2023-07-20T00:09:59;97232.81;;;21.60;88.57
21817;BME280;13247;47.504;7.382;2023-07-20T00:12:43;97228.34;;;21.60;89.22
21817;BME280;13247;47.504;7.382;2023-07-20T00:15:31;97223.09;;;21.48;89.84
21817;BME280;13247;47.504;7.382;2023-07-20T00:18:16;97218.44;;;21.39;90.95
21817;BME280;13247;47.504;7.382;2023-07-20T00:21:01;97223.69;;;21.51;89.79
21817;BME280;13247;47.504;7.382;2023-07-20T00:23:46;97232.22;;;21.78;86.74
21817;BME280;13247;47.504;7.382;2023-07-20T00:26:30;97217.97;;;21.45;88.43
21817;BME280;13247;47.504;7.382;2023-07-20T00:29:15;97228.78;;;21.54;88.23
21817;BME280;13247;47.504;7.382;2023-07-20T00:32:00;97217.50;;;21.51;88.67
21817;BME280;13247;47.504;7.382;2023-07-20T00:34:45;97227.25;;;21.74;87.37
21817;BME280;13247;47.504;7.382;2023-07-20T00:37:29;97213.72;;;21.42;89.25
21817;BME280;13247;47.504;7.382;2023-07-20T00:40:14;97217.06;;;20.98;94.55
21817;BME280;13247;47.504;7.382;2023-07-20T00:42:59;97216.44;;;20.95;95.57
21817;BME280;13247;47.504;7.382;2023-07-20T00:45:44;97220.44;;;21.00;94.05
21817;BME280;13247;47.504;7.382;2023-07-20T00:48:29;97218.81;;;21.10;92.78
21817;BME280;13247;47.504;7.382;2023-07-20T00:51:15;97213.25;;;20.90;94.78
21817;BME280;13247;47.504;7.382;2023-07-20T00:54:00;97208.53;;;20.93;94.28
21817;BME280;13247;47.504;7.382;2023-07-20T00:56:45;97209.00;;;20.87;95.33
21817;BME280;13247;47.504;7.382;2023-07-20T00:59:30;97206.81;;;21.05;96.06
21817;BME280;13247;47.504;7.382;2023-07-20T01:02:14;97200.63;;;21.04;92.67
21817;BME280;13247;47.504;7.382;2023-07-20T01:04:59;97202.59;;;20.90;95.36
21817;BME280;13247;47.504;7.382;2023-07-20T01:08:11;97201.13;;;21.09;94.35
21817;BME280;13247;47.504;7.382;2023-07-20T01:11:01;97201.41;;;21.18;94.23
21817;BME280;13247;47.504;7.382;2023-07-20T01:13:51;97211.44;;;20.90;94.19
21817;BME280;13247;47.504;7.382;2023-07-20T01:16:35;97204.72;;;20.85;95.63
21817;BME280;13247;47.504;7.382;2023-07-20T01:19:20;97206.16;;;20.78;96.62
21817;BME280;13247;47.504;7.382;2023-07-20T01:32:24;97196.94;;;21.18;95.29
21817;BME280;13247;47.504;7.382;2023-07-20T01:35:13;97202.72;;;20.99;99.31
21817;BME280;13247;47.504;7.382;2023-07-20T01:38:01;97205.66;;;20.96;100.00
21817;BME280;13247;47.504;7.382;2023-07-20T01:40:47;97204.16;;;21.05;98.95
21817;BME280;13247;47.504;7.382;2023-07-20T01:43:32;97212.84;;;20.83;99.62
21817;BME280;13247;47.504;7.382;2023-07-20T01:46:16;97207.78;;;20.68;100.00
21817;BME280;13247;47.504;7.382;2023-07-20T01:49:02;97204.47;;;20.77;100.00
21817;BME280;13247;47.504;7.382;2023-07-20T01:51:47;97204.41;;;20.89;99.97
21817;BME280;13247;47.504;7.382;2023-07-20T01:54:31;97203.19;;;20.93;100.00
21817;BME280;13247;47.504;7.382;2023-07-20T01:57:16;97187.59;;;21.00;100.00
21817;BME280;13247;47.504;7.382;2023-07-20T02:00:01;97199.75;;;20.57;100.00
21817;BME280;13247;47.504;7.382;2023-07-20T02:02:45;97203.41;;;20.43;100.00
21817;BME280;13247;47.504;7.382;2023-07-20T02:05:30;97203.94;;;20.48;100.00
21817;BME280;13247;47.504;7.382;2023-07-20T02:08:14;97196.06;;;20.70;100.00
21817;BME280;13247;47.504;7.382;2023-07-20T02:11:00;97201.81;;;20.41;100.00
21817;BME280;13247;47.504;7.382;2023-07-20T02:13:44;97208.75;;;20.43;100.00
21817;BME280;13247;47.504;7.382;2023-07-20T02:16:29;97212.16;;;20.45;100.00
21817;BME280;13247;47.504;7.382;2023-07-20T02:19:14;97207.97;;;19.92;100.00
21817;BME280;13247;47.504;7.382;2023-07-20T02:21:59;97206.50;;;19.76;100.00
21817;BME280;13247;47.504;7.382;2023-07-20T02:24:47;97205.94;;;19.71;100.00
21817;BME280;13247;47.504;7.382;2023-07-20T02:27:33;97207.09;;;19.41;100.00
21817;BME280;13247;47.504;7.382;2023-07-20T02:30:18;97209.34;;;19.47;100.00
21817;BME280;13247;47.504;7.382;2023-07-20T02:33:03;97209.03;;;19.65;100.00
21817;BME280;13247;47.504;7.382;2023-07-20T02:35:49;97207.66;;;19.46;100.00
21817;BME280;13247;47.504;7.382;2023-07-20T02:38:34;97202.84;;;19.39;100.00
21817;BME280;13247;47.504;7.382;2023-07-20T02:41:18;97211.69;;;18.47;100.00
21817;BME280;13247;47.504;7.382;2023-07-20T02:44:03;97205.75;;;18.70;100.00
21817;BME280;13247;47.504;7.382;2023-07-20T02:46:48;97207.09;;;18.90;100.00
21817;BME280;13247;47.504;7.382;2023-07-20T02:49:34;97214.75;;;18.67;100.00
21817;BME280;13247;47.504;7.382;2023-07-20T02:52:19;97207.13;;;19.02;100.00
21817;BME280;13247;47.504;7.382;2023-07-20T02:55:03;97214.13;;;18.64;100.00
21817;BME280;13247;47.504;7.382;2023-07-20T02:57:48;97215.06;;;18.90;100.00
21817;BME280;13247;47.504;7.382;2023-07-20T03:00:33;97219.41;;;18.91;100.00
21817;BME280;13247;47.504;7.382;2023-07-20T03:03:18;97207.88;;;18.77;100.00
21817;BME280;13247;47.504;7.382;2023-07-20T03:06:04;97213.53;;;18.73;100.00
21817;BME280;13247;47.504;7.382;2023-07-20T03:08:49;97215.31;;;18.72;100.00
21817;BME280;13247;47.504;7.382;2023-07-20T03:11:36;97219.47;;;18.76;100.00
21817;BME280;13247;47.504;7.382;2023-07-20T03:14:21;97215.78;;;18.79;100.00
21817;BME280;13247;47.504;7.382;2023-07-20T03:17:07;97227.19;;;18.67;100.00
21817;BME280;13247;47.504;7.382;2023-07-20T03:19:53;97222.44;;;18.72;100.00
21817;BME280;13247;47.504;7.382;2023-07-20T03:22:37;97223.69;;;18.66;100.00
21817;BME280;13247;47.504;7.382;2023-07-20T03:25:22;97226.31;;;18.54;100.00
21817;BME280;13247;47.504;7.382;2023-07-20T03:28:07;97222.28;;;18.61;100.00
21817;BME280;13247;47.504;7.382;2023-07-20T03:30:56;97224.13;;;18.32;100.00
21817;BME280;13247;47.504;7.382;2023-07-20T03:33:40;97224.25;;;18.02;100.00
21817;BME280;13247;47.504;7.382;2023-07-20T03:36:25;97221.41;;;17.91;100.00
21817;BME280;13247;47.504;7.382;2023-07-20T03:39:09;97219.53;;;18.08;100.00
21817;BME280;13247;47.504;7.382;2023-07-20T03:41:54;97231.16;;;18.19;100.00
21817;BME280;13247;47.504;7.382;2023-07-20T03:44:38;97226.88;;;18.31;100.00
21817;BME280;13247;47.504;7.382;2023-07-20T03:47:23;97235.41;;;18.36;100.00
21817;BME280;13247;47.504;7.382;2023-07-20T03:50:08;97235.00;;;18.01;100.00
21817;BME280;13247;47.504;7.382;2023-07-20T03:52:55;97238.56;;;18.00;100.00
21817;BME280;13247;47.504;7.382;2023-07-20T03:55:39;97246.34;;;17.75;100.00
21817;BME280;13247;47.504;7.382;2023-07-20T03:58:25;97244.44;;;17.91;100.00
21817;BME280;13247;47.504;7.382;2023-07-20T04:01:09;97245.97;;;17.95;100.00
21817;BME280;13247;47.504;7.382;2023-07-20T04:03:54;97246.06;;;17.93;100.00
21817;BME280;13247;47.504;7.382;2023-07-20T04:06:38;97244.81;;;17.71;100.00
21817;BME280;13247;47.504;7.382;2023-07-20T04:09:23;97239.03;;;17.78;100.00
21817;BME280;13247;47.504;7.382;2023-07-20T04:12:08;97244.34;;;17.78;100.00
21817;BME280;13247;47.504;7.382;2023-07-20T04:14:52;97240.69;;;17.37;100.00
21817;BME280;13247;47.504;7.382;2023-07-20T04:17:37;97238.75;;;17.55;100.00
21817;BME280;13247;47.504;7.382;2023-07-20T04:20:22;97243.59;;;17.62;100.00
21817;BME280;13247;47.504;7.382;2023-07-20T04:23:07;97235.34;;;17.53;100.00
21817;BME280;13247;47.504;7.382;2023-07-20T04:25:52;97242.44;;;17.66;100.00
21817;BME280;13247;47.504;7.382;2023-07-20T04:28:37;97235.59;;;17.48;100.00
21817;BME280;13247;47.504;7.382;2023-07-20T04:31:21;97233.38;;;17.41;100.00
21817;BME280;13247;47.504;7.382;2023-07-20T04:34:06;97234.00;;;17.60;100.00
21817;BME280;13247;47.504;7.382;2023-07-20T04:36:50;97239.69;;;17.54;100.00
21817;BME280;13247;47.504;7.382;2023-07-20T04:39:35;97235.75;;;17.45;100.00
21817;BME280;13247;47.504;7.382;2023-07-20T04:42:20;97238.25;;;17.48;100.00
21817;BME280;13247;47.504;7.382;2023-07-20T04:45:05;97242.06;;;17.28;100.00
21817;BME280;13247;47.504;7.382;2023-07-20T04:47:50;97247.72;;;17.08;100.00
21817;BME280;13247;47.504;7.382;2023-07-20T04:50:35;97242.84;;;17.01;100.00
21817;BME280;13247;47.504;7.382;2023-07-20T04:53:20;97243.59;;;17.03;100.00
21817;BME280;13247;47.504;7.382;2023-07-20T04:56:04;97249.94;;;17.00;100.00
21817;BME280;13247;47.504;7.382;2023-07-20T04:58:49;97245.72;;;17.12;100.00
21817;BME280;13247;47.504;7.382;2023-07-20T05:01:34;97238.50;;;17.00;100.00
21817;BME280;13247;47.504;7.382;2023-07-20T05:04:18;97240.44;;;16.96;100.00
21817;BME280;13247;47.504;7.382;2023-07-20T05:07:03;97232.81;;;17.36;100.00
21817;BME280;13247;47.504;7.382;2023-07-20T05:09:48;97235.03;;;17.57;100.00
21817;BME280;13247;47.504;7.382;2023-07-20T05:12:32;97227.78;;;17.75;100.00
21817;BME280;13247;47.504;7.382;2023-07-20T05:15:17;97235.81;;;18.01;100.00
21817;BME280;13247;47.504;7.382;2023-07-20T05:18:02;97239.59;;;17.97;100.00
21817;BME280;13247;47.504;7.382;2023-07-20T05:20:50;97239.59;;;17.97;100.00
21817;BME280;13247;47.504;7.382;2023-07-20T05:23:35;97233.00;;;17.90;100.00
21817;BME280;13247;47.504;7.382;2023-07-20T05:26:20;97237.44;;;18.04;100.00
21817;BME280;13247;47.504;7.382;2023-07-20T05:29:04;97234.84;;;18.17;100.00
21817;BME280;13247;47.504;7.382;2023-07-20T05:31:49;97237.69;;;18.28;100.00
21817;BME280;13247;47.504;7.382;2023-07-20T05:34:34;97238.44;;;18.30;100.00
21817;BME280;13247;47.504;7.382;2023-07-20T05:37:19;97235.00;;;18.42;100.00
21817;BME280;13247;47.504;7.382;2023-07-20T05:40:04;97231.59;;;18.40;100.00
21817;BME280;13247;47.504;7.382;2023-07-20T05:42:49;97234.13;;;18.00;100.00
21817;BME280;13247;47.504;7.382;2023-07-20T05:45:36;97235.06;;;18.14;100.00
21817;BME280;13247;47.504;7.382;2023-07-20T05:48:21;97225.63;;;18.36;100.00
21817;BME280;13247;47.504;7.382;2023-07-20T05:51:06;97224.91;;;18.20;100.00
21817;BME280;13247;47.504;7.382;2023-07-20T05:53:51;97233.88;;;18.32;100.00
21817;BME280;13247;47.504;7.382;2023-07-20T05:56:35;97227.72;;;18.31;100.00
21817;BME280;13247;47.504;7.382;2023-07-20T05:59:20;97220.13;;;18.53;100.00
21817;BME280;13247;47.504;7.382;2023-07-20T06:02:06;97216.03;;;18.62;100.00
21817;BME280;13247;47.504;7.382;2023-07-20T06:04:52;97215.72;;;18.93;100.00
21817;BME280;13247;47.504;7.382;2023-07-20T06:07:39;97222.06;;;19.17;100.00
21817;BME280;13247;47.504;7.382;2023-07-20T06:10:24;97221.34;;;19.28;100.00
21817;BME280;13247;47.504;7.382;2023-07-20T06:13:09;97224.78;;;19.42;100.00
21817;BME280;13247;47.504;7.382;2023-07-20T06:15:54;97218.19;;;19.73;100.00
21817;BME280;13247;47.504;7.382;2023-07-20T06:18:39;97218.59;;;19.92;100.00
21817;BME280;13247;47.504;7.382;2023-07-20T06:21:24;97222.44;;;20.01;100.00
21817;BME280;13247;47.504;7.382;2023-07-20T06:24:09;97228.38;;;20.04;100.00
21817;BME280;13247;47.504;7.382;2023-07-20T06:26:53;97221.47;;;20.27;100.00
21817;BME280;13247;47.504;7.382;2023-07-20T06:29:38;97223.81;;;20.19;100.00
21817;BME280;13247;47.504;7.382;2023-07-20T06:32:23;97228.00;;;20.23;100.00
21817;BME280;13247;47.504;7.382;2023-07-20T06:35:07;97225.19;;;20.37;100.00
21817;BME280;13247;47.504;7.382;2023-07-20T06:37:53;97228.75;;;20.49;100.00
21817;BME280;13247;47.504;7.382;2023-07-20T06:40:38;97215.91;;;20.66;100.00
21817;BME280;13247;47.504;7.382;2023-07-20T06:43:22;97222.59;;;20.48;100.00
21817;BME280;13247;47.504;7.382;2023-07-20T06:46:07;97225.84;;;20.64;100.00
21817;BME280;13247;47.504;7.382;2023-07-20T06:48:52;97230.72;;;20.70;100.00
21817;BME280;13247;47.504;7.382;2023-07-20T06:51:37;97228.72;;;20.85;100.00
21817;BME280;13247;47.504;7.382;2023-07-20T06:54:21;97227.66;;;20.87;100.00
21817;BME280;13247;47.504;7.382;2023-07-20T06:57:06;97225.22;;;20.84;100.00
21817;BME280;13247;47.504;7.382;2023-07-20T06:59:50;97215.41;;;20.85;100.00
21817;BME280;13247;47.504;7.382;2023-07-20T07:02:35;97225.56;;;21.03;100.00
21817;BME280;13247;47.504;7.382;2023-07-20T07:05:20;97222.91;;;21.03;100.00
21817;BME280;13247;47.504;7.382;2023-07-20T07:08:05;97222.63;;;21.19;94.37
21817;BME280;13247;47.504;7.382;2023-07-20T07:10:51;97216.72;;;21.27;97.33
21817;BME280;13247;47.504;7.382;2023-07-20T07:13:36;97214.34;;;21.57;94.99
21817;BME280;13247;47.504;7.382;2023-07-20T07:16:21;97220.66;;;21.67;89.47
21817;BME280;13247;47.504;7.382;2023-07-20T07:19:06;97223.47;;;21.65;93.50
21817;BME280;13247;47.504;7.382;2023-07-20T07:21:53;97220.94;;;21.64;90.10
21817;BME280;13247;47.504;7.382;2023-07-20T07:24:37;97227.38;;;21.72;92.74
21817;BME280;13247;47.504;7.382;2023-07-20T07:27:22;97224.94;;;21.69;89.86
21817;BME280;13247;47.504;7.382;2023-07-20T07:30:07;97223.28;;;21.91;91.16
21817;BME280;13247;47.504;7.382;2023-07-20T07:32:51;97222.22;;;21.93;88.88
21817;BME280;13247;47.504;7.382;2023-07-20T07:35:37;97218.88;;;21.78;84.81
21817;BME280;13247;47.504;7.382;2023-07-20T07:38:22;97216.28;;;21.90;78.73
21817;BME280;13247;47.504;7.382;2023-07-20T07:41:06;97210.78;;;21.91;78.71
21817;BME280;13247;47.504;7.382;2023-07-20T07:43:51;97216.38;;;21.99;75.22
21817;BME280;13247;47.504;7.382;2023-07-20T07:46:35;97213.84;;;21.98;75.67
21817;BME280;13247;47.504;7.382;2023-07-20T07:49:20;97212.03;;;21.98;78.27
21817;BME280;13247;47.504;7.382;2023-07-20T07:52:05;97214.94;;;22.06;80.88
21817;BME280;13247;47.504;7.382;2023-07-20T07:54:49;97213.47;;;22.35;77.88
21817;BME280;13247;47.504;7.382;2023-07-20T07:57:34;97210.81;;;22.13;77.03
21817;BME280;13247;47.504;7.382;2023-07-20T08:00:19;97203.38;;;22.39;78.82
21817;BME280;13247;47.504;7.382;2023-07-20T08:03:05;97209.56;;;22.50;75.97
21817;BME280;13247;47.504;7.382;2023-07-20T08:05:50;97206.38;;;22.56;76.05
21817;BME280;13247;47.504;7.382;2023-07-20T08:08:35;97200.88;;;22.80;72.83
21817;BME280;13247;47.504;7.382;2023-07-20T08:11:19;97198.13;;;23.02;76.15
21817;BME280;13247;47.504;7.382;2023-07-20T08:14:04;97202.38;;;23.05;77.00
21817;BME280;13247;47.504;7.382;2023-07-20T08:16:49;97196.81;;;22.97;75.61
21817;BME280;13247;47.504;7.382;2023-07-20T08:19:33;97203.47;;;23.02;73.93
21817;BME280;13247;47.504;7.382;2023-07-20T08:22:19;97207.44;;;23.19;65.73
21817;BME280;13247;47.504;7.382;2023-07-20T08:25:04;97201.34;;;23.17;64.86
21817;BME280;13247;47.504;7.382;2023-07-20T08:27:49;97197.78;;;22.96;68.96
21817;BME280;13247;47.504;7.382;2023-07-20T08:30:45;97204.34;;;23.03;66.60
21817;BME280;13247;47.504;7.382;2023-07-20T08:33:30;97200.19;;;23.30;67.89
21817;BME280;13247;47.504;7.382;2023-07-20T08:36:18;97201.06;;;23.31;67.23
21817;BME280;13247;47.504;7.382;2023-07-20T08:39:02;97206.63;;;23.07;70.50
21817;BME280;13247;47.504;7.382;2023-07-20T08:41:48;97200.19;;;23.42;70.64
21817;BME280;13247;47.504;7.382;2023-07-20T08:44:33;97196.25;;;23.46;68.94
21817;BME280;13247;47.504;7.382;2023-07-20T08:47:19;97195.09;;;23.89;68.01
21817;BME280;13247;47.504;7.382;2023-07-20T08:50:06;97193.34;;;24.30;67.18
21817;BME280;13247;47.504;7.382;2023-07-20T08:52:53;97189.06;;;24.57;64.86
21817;BME280;13247;47.504;7.382;2023-07-20T08:55:39;97200.94;;;24.25;65.41
21817;BME280;13247;47.504;7.382;2023-07-20T08:58:24;97195.47;;;24.26;64.39
21817;BME280;13247;47.504;7.382;2023-07-20T09:01:11;97199.88;;;24.37;61.83
21817;BME280;13247;47.504;7.382;2023-07-20T09:03:57;97191.72;;;24.57;62.63
21817;BME280;13247;47.504;7.382;2023-07-20T09:06:42;97187.09;;;24.69;59.42
21817;BME280;13247;47.504;7.382;2023-07-20T09:09:27;97190.28;;;24.44;59.89
21817;BME280;13247;47.504;7.382;2023-07-20T09:12:15;97179.13;;;24.98;62.14
21817;BME280;13247;47.504;7.382;2023-07-20T09:15:01;97183.63;;;24.97;59.85
21817;BME280;13247;47.504;7.382;2023-07-20T09:17:47;97185.59;;;24.76;59.71
21817;BME280;13247;47.504;7.382;2023-07-20T09:20:33;97182.78;;;24.38;61.34
21817;BME280;13247;47.504;7.382;2023-07-20T09:23:18;97182.00;;;24.16;65.79
21817;BME280;13247;47.504;7.382;2023-07-20T09:26:13;97174.53;;;24.60;65.23
21817;BME280;13247;47.504;7.382;2023-07-20T09:29:01;97175.41;;;24.79;63.90
21817;BME280;13247;47.504;7.382;2023-07-20T09:32:02;97175.34;;;24.51;64.80
21817;BME280;13247;47.504;7.382;2023-07-20T09:34:51;97173.78;;;24.48;61.76
21817;BME280;13247;47.504;7.382;2023-07-20T09:37:36;97163.16;;;24.77;57.20
21817;BME280;13247;47.504;7.382;2023-07-20T09:40:21;97160.31;;;25.07;61.63
21817;BME280;13247;47.504;7.382;2023-07-20T09:43:09;97158.03;;;25.41;59.60
21817;BME280;13247;47.504;7.382;2023-07-20T09:45:58;97148.34;;;25.02;57.47
21817;BME280;13247;47.504;7.382;2023-07-20T09:48:52;97151.72;;;24.94;58.66
21817;BME280;13247;47.504;7.382;2023-07-20T09:51:40;97153.13;;;25.08;61.34
21817;BME280;13247;47.504;7.382;2023-07-20T09:54:27;97164.69;;;24.79;59.88
21817;BME280;13247;47.504;7.382;2023-07-20T09:57:12;97169.47;;;24.17;64.29
21817;BME280;13247;47.504;7.382;2023-07-20T10:00:00;97152.97;;;24.22;66.41
21817;BME280;13247;47.504;7.382;2023-07-20T10:02:46;97141.28;;;24.81;62.11
21817;BME280;13247;47.504;7.382;2023-07-20T10:05:39;97148.88;;;24.86;60.11
21817;BME280;13247;47.504;7.382;2023-07-20T10:08:29;97139.53;;;25.28;58.79
21817;BME280;13247;47.504;7.382;2023-07-20T10:11:16;97131.00;;;25.81;58.15
21817;BME280;13247;47.504;7.382;2023-07-20T10:14:04;97125.00;;;25.40;55.93
21817;BME280;13247;47.504;7.382;2023-07-20T10:16:58;97124.19;;;24.92;57.41
21817;BME280;13247;47.504;7.382;2023-07-20T10:19:51;97120.78;;;24.80;60.46
21817;BME280;13247;47.504;7.382;2023-07-20T10:22:39;97121.91;;;24.97;59.41
21817;BME280;13247;47.504;7.382;2023-07-20T10:25:24;97123.72;;;24.68;62.62
21817;BME280;13247;47.504;7.382;2023-07-20T10:28:10;97119.78;;;25.29;58.35
21817;BME280;13247;47.504;7.382;2023-07-20T10:30:56;97117.94;;;25.86;55.82
21817;BME280;13247;47.504;7.382;2023-07-20T10:33:41;97113.56;;;25.38;55.14
21817;BME280;13247;47.504;7.382;2023-07-20T10:36:27;97102.38;;;26.26;53.61
21817;BME280;13247;47.504;7.382;2023-07-20T10:39:25;97102.63;;;25.96;56.94
21817;BME280;13247;47.504;7.382;2023-07-20T10:42:12;97104.13;;;25.81;55.13
21817;BME280;13247;47.504;7.382;2023-07-20T10:44:56;97104.47;;;25.58;56.74
21817;BME280;13247;47.504;7.382;2023-07-20T10:47:47;97101.34;;;26.00;53.28
21817;BME280;13247;47.504;7.382;2023-07-20T10:50:36;97098.19;;;25.77;56.69
21817;BME280;13247;47.504;7.382;2023-07-20T10:53:21;97097.66;;;25.64;52.92
21817;BME280;13247;47.504;7.382;2023-07-20T10:58:59;97090.69;;;25.81;51.77
21817;BME280;13247;47.504;7.382;2023-07-20T11:01:45;97076.66;;;26.41;53.40
21817;BME280;13247;47.504;7.382;2023-07-20T11:04:39;97083.50;;;26.08;53.23
21817;BME280;13247;47.504;7.382;2023-07-20T11:07:37;97070.91;;;26.54;50.20
21817;BME280;13247;47.504;7.382;2023-07-20T11:10:25;97075.19;;;26.29;50.70
21817;BME280;13247;47.504;7.382;2023-07-20T11:13:18;97076.41;;;25.80;54.04
21817;BME280;13247;47.504;7.382;2023-07-20T11:16:03;97068.44;;;25.88;54.48
21817;BME280;13247;47.504;7.382;2023-07-20T11:18:49;97062.97;;;26.34;54.24
21817;BME280;13247;47.504;7.382;2023-07-20T11:21:38;97059.00;;;26.56;53.04
21817;BME280;13247;47.504;7.382;2023-07-20T11:24:25;97060.91;;;26.64;50.02
21817;BME280;13247;47.504;7.382;2023-07-20T11:27:10;97059.84;;;25.85;54.76
21817;BME280;13247;47.504;7.382;2023-07-20T11:29:54;97073.84;;;25.42;54.61
21817;BME280;13247;47.504;7.382;2023-07-20T11:32:48;97059.81;;;25.57;54.56
21817;BME280;13247;47.504;7.382;2023-07-20T11:35:38;97069.88;;;25.55;52.70
21817;BME280;13247;47.504;7.382;2023-07-20T11:38:26;97057.47;;;25.26;53.09
21817;BME280;13247;47.504;7.382;2023-07-20T11:41:11;97058.09;;;25.56;52.17
21817;BME280;13247;47.504;7.382;2023-07-20T11:43:57;97047.47;;;25.92;53.13
21817;BME280;13247;47.504;7.382;2023-07-20T11:46:43;97048.41;;;26.10;51.07
21817;BME280;13247;47.504;7.382;2023-07-20T11:49:29;97043.03;;;26.27;52.56
21817;BME280;13247;47.504;7.382;2023-07-20T11:52:17;97037.75;;;26.53;47.12
21817;BME280;13247;47.504;7.382;2023-07-20T11:55:03;97046.13;;;26.77;46.34
21817;BME280;13247;47.504;7.382;2023-07-20T11:58:17;97036.63;;;26.91;47.29
21817;BME280;13247;47.504;7.382;2023-07-20T12:01:02;97041.47;;;26.87;47.91
21817;BME280;13247;47.504;7.382;2023-07-20T12:03:48;97030.38;;;26.55;48.96
21817;BME280;13247;47.504;7.382;2023-07-20T12:06:34;97026.66;;;26.48;48.80
21817;BME280;13247;47.504;7.382;2023-07-20T12:09:18;97024.47;;;26.52;49.75
21817;BME280;13247;47.504;7.382;2023-07-20T12:12:10;97018.72;;;26.64;49.19
21817;BME280;13247;47.504;7.382;2023-07-20T12:15:30;97019.19;;;26.77;48.26
21817;BME280;13247;47.504;7.382;2023-07-20T12:18:16;97022.69;;;26.95;48.73
21817;BME280;13247;47.504;7.382;2023-07-20T12:21:00;97008.31;;;26.87;49.61
21817;BME280;13247;47.504;7.382;2023-07-20T12:23:46;97011.34;;;26.31;49.15
21817;BME280;13247;47.504;7.382;2023-07-20T12:26:32;97002.97;;;26.69;48.10
21817;BME280;13247;47.504;7.382;2023-07-20T12:29:16;97007.63;;;27.02;47.17
21817;BME280;13247;47.504;7.382;2023-07-20T12:32:01;97008.94;;;27.24;47.27
21817;BME280;13247;47.504;7.382;2023-07-20T12:34:46;96997.63;;;27.20;45.38
21817;BME280;13247;47.504;7.382;2023-07-20T12:37:30;96996.63;;;27.39;48.61
21817;BME280;13247;47.504;7.382;2023-07-20T12:40:15;96995.84;;;27.03;49.76
21817;BME280;13247;47.504;7.382;2023-07-20T12:43:00;96980.19;;;27.58;43.44
21817;BME280;13247;47.504;7.382;2023-07-20T12:45:45;96984.81;;;27.14;47.50
21817;BME280;13247;47.504;7.382;2023-07-20T12:48:30;96983.84;;;27.23;46.67
21817;BME280;13247;47.504;7.382;2023-07-20T12:51:15;96979.00;;;27.01;46.46
21817;BME280;13247;47.504;7.382;2023-07-20T12:54:00;96971.56;;;27.47;43.46
21817;BME280;13247;47.504;7.382;2023-07-20T12:56:45;96971.69;;;27.71;43.82
21817;BME280;13247;47.504;7.382;2023-07-20T12:59:29;96975.41;;;27.44;44.36
21817;BME280;13247;47.504;7.382;2023-07-20T13:02:14;96972.84;;;27.35;43.21
21817;BME280;13247;47.504;7.382;2023-07-20T13:04:59;96972.97;;;27.67;43.03
21817;BME280;13247;47.504;7.382;2023-07-20T13:07:44;96972.06;;;27.24;43.73
21817;BME280;13247;47.504;7.382;2023-07-20T13:10:30;96964.13;;;27.41;43.91
21817;BME280;13247;47.504;7.382;2023-07-20T13:13:15;96970.50;;;27.40;44.50
21817;BME280;13247;47.504;7.382;2023-07-20T13:16:00;96953.81;;;27.36;43.36
21817;BME280;13247;47.504;7.382;2023-07-20T13:18:45;96959.25;;;27.18;46.29
21817;BME280;13247;47.504;7.382;2023-07-20T13:21:29;96961.06;;;27.36;44.44
21817;BME280;13247;47.504;7.382;2023-07-20T13:24:14;96965.00;;;27.23;44.96
21817;BME280;13247;47.504;7.382;2023-07-20T13:27:00;96952.44;;;27.66;43.26
21817;BME280;13247;47.504;7.382;2023-07-20T13:29:45;96950.09;;;28.45;40.74
21817;BME280;13247;47.504;7.382;2023-07-20T13:32:30;96956.97;;;27.57;43.29
21817;BME280;13247;47.504;7.382;2023-07-20T13:35:15;96939.75;;;27.92;42.86
21817;BME280;13247;47.504;7.382;2023-07-20T13:37:59;96948.56;;;27.60;44.19
21817;BME280;13247;47.504;7.382;2023-07-20T13:40:44;96939.03;;;27.90;43.77
21817;BME280;13247;47.504;7.382;2023-07-20T13:43:29;96940.72;;;27.91;42.94
21817;BME280;13247;47.504;7.382;2023-07-20T13:46:13;96940.72;;;27.41;42.95
21817;BME280;13247;47.504;7.382;2023-07-20T13:48:58;96940.25;;;27.20;44.21
21817;BME280;13247;47.504;7.382;2023-07-20T13:51:43;96935.09;;;27.01;46.03
21817;BME280;13247;47.504;7.382;2023-07-20T13:54:28;96940.00;;;26.62;46.19
21817;BME280;13247;47.504;7.382;2023-07-20T13:57:13;96941.63;;;26.73;45.25
21817;BME280;13247;47.504;7.382;2023-07-20T13:59:57;96941.34;;;27.35;45.01
21817;BME280;13247;47.504;7.382;2023-07-20T14:02:44;96925.66;;;27.31;43.98
21817;BME280;13247;47.504;7.382;2023-07-20T14:05:29;96928.19;;;27.32;45.36
21817;BME280;13247;47.504;7.382;2023-07-20T14:08:14;96912.69;;;27.68;43.27
21817;BME280;13247;47.504;7.382;2023-07-20T14:10:59;96924.97;;;28.04;42.52
21817;BME280;13247;47.504;7.382;2023-07-20T14:13:43;96925.97;;;28.11;40.88
21817;BME280;13247;47.504;7.382;2023-07-20T14:16:28;96922.09;;;27.56;45.32
21817;BME280;13247;47.504;7.382;2023-07-20T14:19:12;96919.41;;;27.56;43.50
21817;BME280;13247;47.504;7.382;2023-07-20T14:21:57;96916.38;;;27.59;43.91
21817;BME280;13247;47.504;7.382;2023-07-20T14:24:44;96907.00;;;27.71;42.80
21817;BME280;13247;47.504;7.382;2023-07-20T14:27:29;96916.03;;;28.12;43.17
21817;BME280;13247;47.504;7.382;2023-07-20T14:30:13;96913.25;;;27.38;42.19
21817;BME280;13247;47.504;7.382;2023-07-20T14:32:58;96911.13;;;28.07;40.12
21817;BME280;13247;47.504;7.382;2023-07-20T14:35:43;96900.56;;;27.64;40.85
21817;BME280;13247;47.504;7.382;2023-07-20T14:38:31;96902.41;;;28.37;40.79
21817;BME280;13247;47.504;7.382;2023-07-20T14:41:16;96901.38;;;28.54;40.14
21817;BME280;13247;47.504;7.382;2023-07-20T14:44:01;96898.69;;;28.30;39.28
21817;BME280;13247;47.504;7.382;2023-07-20T14:46:46;96891.59;;;28.13;39.67
21817;BME280;13247;47.504;7.382;2023-07-20T14:49:31;96885.84;;;27.50;41.96